Accueil
METAR-TAF:

METAR-TAF

Aéroports :

Rio de Janeiro, Rio de Janeiro, Brésil

latitude: 22-59S, longitude: 043-22W, altitude: 3 m

Observation

Le bulletin a été fait il y a 50 minutes, à 18:00 UTC
Vent 3 kt de sud
Température 27°C
Humidité 94%
Pression 1013 hPa
Visibilité: 7000 m
Nuages épars à une hauteur de 2000 ft
Nuages épars à une hauteur de 3000 ft
Nuages fragmentés à une hauteur de 10000 ft

METAR: SBJR 271800Z 18003KT 7000 SCT020 SCT030 BKN100 27/26 Q1013 RETS

Heure: 15:50 (18:50 UTC)


TAF: absent

Observations et prévisions météorologiques de plus de 4000 aéroports (messages METAR et TAF).

Les stations disponibles sont représentées par des disques jaunes et rouges sur la carte.

Passer la souris dessus pour voir le nom de la station.

Cliquer dessus pour voir les observations et prévisions météorologiques.

Pour changer de carte: cliquez sur les boutons verts avec une croix noire pour zoomer, sur le bouton vert avec un tiret pour effectuer un zoom arrière, ou sur les flèches vertes pour les cartes adjacentes.


METAR-TAF: